Terminal Aerodrome Forecast
Issued by NWS

Home | Current Version | Previous Version | Text Only | Print | Product List | Glossary On
Versions: 1 2 3 4 5 6 7 8 9 10 11 12
426
FTUS45 KABQ 022341
TAFAEG
TAF
KAEG 022341Z 0300/0324 10015G23KT P6SM FEW060 SCT120
     FM030600 06012KT P6SM SCT030 BKN060
     FM031200 02009KT P6SM SCT035 BKN070
     FM031800 35009KT P6SM SCT060 SCT110=

USA.gov is the U.S. government's official web portal to all federal, state and local government web resources and services.